Login to view Products
 
Thursday, November 26, 2020 (04:15 UTC)
Abu Dhabi International Airport
Last Updated: 26-Nov-2020 (04:13Z)
Wind Dir/Speed: SE at 09 kt
Temperature: 23.0°C
Rel. Humidity: 52 %
Pressure: 1018.2 hPa
Visibility: 10000 m
ACTUALS:
  • METAR OMAA 260400Z 13008KT CAVOK 22/13 Q1018 NOSIG
  • TAF OMAA 252300Z 2600/2706 08008KT CAVOK BECMG 2601/2603 14012KT BECMG 2613/2615 04008KT BECMG 2622/2700 14012KT=
D:\Input Parser\Destinations\Final\23\OMAAL000623001690815963.txt
1